Time;durP1;ratioP1;P1;durP2;ratioP2;P2;SDS_P1;SDS_P2;PMS_P1;PMS_P2;Temp;Humidity;BMP_temperature;BMP_pressure;BME280_temperature;BME280_humidity;BME280_pressure;Samples;Min_cycle;Max_cycle;Signal;HPM_P1;HPM_P2
2024/04/11 05:03:19;;;;;;;;;;;;;;;15.89;79.12;100832.05;1862011;76;20101;-72
2024/04/11 05:05:48;;;;;;;;;;;;;;;16.27;77.19;100834.77;1826577;77;20133;-73
2024/04/11 05:08:14;;;;;;;;;;;;;;;16.75;75.30;100838.14;1820378;77;20121;-74
2024/04/11 05:10:41;;;;;;;;;;;;;;;17.24;73.21;100840.78;1832373;77;20062;-73
2024/04/11 05:13:10;;;;;;;;;;;;;;;17.77;72.14;100830.84;1832829;78;20156;-73
2024/04/11 05:15:37;;;;;;;;;;;;;;;18.26;70.32;100834.14;1832588;78;20093;-72
2024/04/11 05:18:07;;;;;;;;;;;;;;;18.74;68.68;100842.41;1831415;78;20110;-69
2024/04/11 05:20:33;;;;;;;;;;;;;;;19.19;67.89;100841.42;1817208;78;20106;-74
2024/04/11 05:23:04;;;;;;;;;;;;;;;19.62;66.36;100838.84;1829976;78;20107;-72
2024/04/11 05:25:30;;;;;;;;;;;;;;;20.02;64.63;100835.57;1818551;78;20109;-71
2024/04/11 05:27:57;;;;;;;;;;;;;;;20.38;62.59;100835.68;1815739;78;20190;-72
2024/04/11 05:30:27;;;;;;;;;;;;;;;20.72;60.70;100836.77;1815764;78;20157;-75
2024/04/11 05:32:54;;;;;;;;;;;;;;;21.05;59.34;100832.52;1824114;78;20195;-71
2024/04/11 05:35:23;;;;;;;;;;;;;;;21.34;58.04;100823.84;1826121;78;20368;-75
2024/04/11 05:37:49;;;;;;;;;;;;;;;21.64;57.12;100829.04;1829728;78;20113;-72
2024/04/11 05:40:16;;;;;;;;;;;;;;;21.90;56.03;100824.89;1819492;78;20113;-74
2024/04/11 05:42:47;;;;;;;;;;;;;;;22.20;55.03;100829.22;1829798;78;20415;-75
2024/04/11 05:45:19;;;;;;;;;;;;;;;22.46;53.51;100825.45;1816591;78;20094;-71
2024/04/11 05:47:47;;;;;;;;;;;;;;;22.72;52.66;100828.83;1800160;78;20135;-78
2024/04/11 05:50:16;;;;;;;;;;;;;;;22.98;50.81;100834.34;1804605;77;20148;-75
2024/04/11 05:52:44;;;;;;;;;;;;;;;23.18;48.84;100825.30;1818966;77;20204;-75
2024/04/11 05:55:10;;;;;;;;;;;;;;;23.36;48.08;100827.48;1835687;77;20096;-74
2024/04/11 05:57:37;;;;;;;;;;;;;;;23.56;47.00;100834.89;1823948;77;20093;-73
2024/04/11 06:00:08;;;;;;;;;;;;;;;23.66;45.78;100831.64;1828387;77;20099;-73
2024/04/11 06:02:40;;;;;;;;;;;;;;;23.70;45.29;100838.34;1828329;77;20105;-77
2024/04/11 06:05:06;;;;;;;;;;;;;;;23.67;45.45;100848.44;1813999;78;20133;-72
2024/04/11 06:07:35;;;;;;;;;;;;;;;23.58;45.50;100847.55;1820477;78;20354;-72
2024/04/11 06:10:04;;;;;;;;;;;;;;;23.47;45.83;100857.86;1816145;78;20153;-70
2024/04/11 06:12:34;;;;;;;;;;;;;;;23.33;46.17;100863.66;1807607;77;20176;-73
2024/04/11 06:15:00;;;;;;;;;;;;;;;23.25;46.33;100874.19;1782488;78;20395;-75
2024/04/11 06:17:29;;;;;;;;;;;;;;;23.20;46.80;100870.64;1812246;78;20115;-71
2024/04/11 06:19:55;;;;;;;;;;;;;;;23.26;47.00;100864.73;1816592;78;20135;-72
2024/04/11 06:22:22;;;;;;;;;;;;;;;23.37;47.43;100869.52;1813955;78;20146;-71
2024/04/11 06:24:51;;;;;;;;;;;;;;;23.51;47.93;100875.67;1814902;78;20384;-75
2024/04/11 06:27:17;;;;;;;;;;;;;;;23.66;47.93;100878.18;1810533;78;20099;-72
2024/04/11 06:29:44;;;;;;;;;;;;;;;23.73;47.32;100877.09;1813809;78;20146;-73
2024/04/11 06:32:12;;;;;;;;;;;;;;;23.78;46.61;100874.82;1808382;78;20165;-72
2024/04/11 06:34:44;;;;;;;;;;;;;;;23.80;46.20;100883.00;1815065;78;20555;-75
2024/04/11 06:37:11;;;;;;;;;;;;;;;23.72;45.98;100876.25;1811369;78;20114;-72
2024/04/11 06:39:41;;;;;;;;;;;;;;;23.61;46.56;100883.11;1812183;78;20147;-70
2024/04/11 06:42:13;;;;;;;;;;;;;;;23.50;46.71;100886.80;1816810;78;20866;-73
2024/04/11 06:44:37;;;;;;;;;;;;;;;23.42;46.64;100881.39;1818334;78;20133;-74
2024/04/11 06:47:04;;;;;;;;;;;;;;;23.39;46.39;100889.66;1813971;78;20169;-74
2024/04/11 06:49:30;;;;;;;;;;;;;;;23.43;46.63;100893.69;1808953;78;20130;-74
2024/04/11 06:51:57;;;;;;;;;;;;;;;23.53;46.06;100897.66;1814990;78;20118;-75
2024/04/11 06:54:29;;;;;;;;;;;;;;;23.65;45.65;100899.11;1819652;78;20150;-81
2024/04/11 06:56:58;;;;;;;;;;;;;;;23.75;45.35;100905.21;1809172;78;20141;-72
2024/04/11 06:59:25;;;;;;;;;;;;;;;23.86;45.02;100907.66;1812638;78;20119;-76
2024/04/11 07:01:52;;;;;;;;;;;;;;;23.94;44.52;100909.58;1825111;78;20488;-79
2024/04/11 07:04:18;;;;;;;;;;;;;;;24.02;44.17;100914.95;1806600;79;20285;-74
2024/04/11 07:06:48;;;;;;;;;;;;;;;24.12;43.79;100917.05;1804603;79;20131;-80
2024/04/11 07:09:15;;;;;;;;;;;;;;;24.26;43.46;100917.05;1810415;77;20189;-77
2024/04/11 07:11:41;;;;;;;;;;;;;;;24.43;43.13;100920.17;1807924;79;20150;-74
2024/04/11 07:14:23;;;;;;;;;;;;;;;24.63;43.16;100917.34;1789190;79;20156;-75
2024/04/11 07:16:40;;;;;;;;;;;;;;;24.84;42.48;100912.47;1807694;79;20109;-75
2024/04/11 07:19:04;;;;;;;;;;;;;;;25.06;42.56;100921.81;1796154;79;20232;-74
2024/04/11 07:21:34;;;;;;;;;;;;;;;25.25;42.20;100922.39;1813070;79;20129;-73
2024/04/11 07:23:58;;;;;;;;;;;;;;;25.42;41.70;100916.65;1807834;79;20242;-76
2024/04/11 07:26:29;;;;;;;;;;;;;;;25.56;41.79;100924.55;1792808;79;20170;-71
2024/04/11 07:29:02;;;;;;;;;;;;;;;25.69;41.49;100918.76;1797608;77;20133;-72
2024/04/11 07:31:30;;;;;;;;;;;;;;;25.79;41.51;100921.63;1801818;79;20441;-72
2024/04/11 07:33:58;;;;;;;;;;;;;;;25.94;41.74;100919.67;1810463;79;20109;-76
2024/04/11 07:36:25;;;;;;;;;;;;;;;26.04;40.94;100929.17;1822118;79;20238;-71
2024/04/11 07:38:53;;;;;;;;;;;;;;;26.07;41.29;100927.51;1818955;79;20160;-74
2024/04/11 07:41:23;;;;;;;;;;;;;;;26.17;41.21;100926.03;1804868;79;20150;-72
2024/04/11 07:43:55;;;;;;;;;;;;;;;26.25;41.38;100925.54;1789991;79;20108;-76
2024/04/11 07:46:33;;;;;;;;;;;;;;;26.37;41.06;100923.41;1805613;79;20377;-72
2024/04/11 07:48:58;;;;;;;;;;;;;;;26.46;40.83;100923.72;1818673;79;20086;-71
2024/04/11 07:51:26;;;;;;;;;;;;;;;26.49;40.82;100922.05;1805070;79;20129;-78
2024/04/11 07:53:53;;;;;;;;;;;;;;;26.53;40.76;100930.56;1801265;79;20126;-71
2024/04/11 07:57:16;;;;;;;;;;;;;;;26.54;40.79;100926.39;1795342;79;20110;-76
2024/04/11 08:00:20;;;;;;;;;;;;;;;26.63;41.14;100931.73;1726363;82;20430;-77
2024/04/11 08:02:38;;;;;;;;;;;;;;;26.69;41.42;100932.41;1742306;82;20130;-79
2024/04/11 08:05:05;;;;;;;;;;;;;;;26.75;40.67;100930.40;1747111;82;20256;-74
2024/04/11 08:07:32;;;;;;;;;;;;;;;26.75;40.64;100932.56;1748833;82;20120;-78
2024/04/11 08:09:58;;;;;;;;;;;;;;;26.75;40.53;100941.09;1747942;82;20160;-71
2024/04/11 08:12:26;;;;;;;;;;;;;;;26.71;40.33;100938.41;1795130;78;20104;-73
2024/04/11 08:15:08;;;;;;;;;;;;;;;26.63;40.71;100938.42;1818788;78;20154;-74
2024/04/11 08:17:37;;;;;;;;;;;;;;;26.54;40.87;100938.92;1810381;77;20102;-74
2024/04/11 08:20:12;;;;;;;;;;;;;;;26.51;41.16;100936.08;1827448;77;20166;-73
2024/04/11 08:22:42;;;;;;;;;;;;;;;26.47;41.04;100939.25;1794418;78;20190;-71
2024/04/11 08:25:12;;;;;;;;;;;;;;;26.41;40.83;100941.24;1808933;78;20082;-74
2024/04/11 08:27:38;;;;;;;;;;;;;;;26.30;40.88;100957.09;1806673;78;20094;-73
2024/04/11 08:30:11;;;;;;;;;;;;;;;26.20;41.59;100949.73;1813185;78;20105;-75
2024/04/11 08:32:41;;;;;;;;;;;;;;;26.19;41.38;100943.55;1832423;77;20354;-69
2024/04/11 08:35:08;;;;;;;;;;;;;;;26.10;41.49;100944.53;1807616;77;20155;-75
2024/04/11 08:37:34;;;;;;;;;;;;;;;26.03;41.95;100952.02;1801288;78;20150;-72
2024/04/11 08:40:00;;;;;;;;;;;;;;;26.00;42.29;100951.84;1809867;78;20094;-68
2024/04/11 08:42:28;;;;;;;;;;;;;;;26.02;42.72;100955.69;1815165;77;20129;-69
2024/04/11 08:44:57;;;;;;;;;;;;;;;26.09;42.70;100956.70;1814035;78;20127;-68
2024/04/11 08:47:29;;;;;;;;;;;;;;;26.16;42.27;100958.56;1812277;78;20445;-71
2024/04/11 08:49:53;;;;;;;;;;;;;;;26.16;42.13;100963.06;1810859;77;20397;-70
2024/04/11 08:52:24;;;;;;;;;;;;;;;26.15;42.09;100967.56;1815531;77;20118;-70
2024/04/11 08:54:50;;;;;;;;;;;;;;;26.10;42.04;100961.88;1817192;77;20168;-67
2024/04/11 08:57:17;;;;;;;;;;;;;;;26.06;42.75;100968.55;1821273;78;20159;-70
2024/04/11 08:59:46;;;;;;;;;;;;;;;26.06;42.06;100967.21;1823426;78;20159;-76
2024/04/11 09:02:12;;;;;;;;;;;;;;;26.01;42.24;100968.20;1826256;78;20131;-69
2024/04/11 09:04:41;;;;;;;;;;;;;;;25.96;42.44;100969.22;1791779;79;20096;-74
2024/04/11 09:07:20;;;;;;;;;;;;;;;25.87;42.55;100976.86;1816425;79;20090;-71
2024/04/11 09:09:36;;;;;;;;;;;;;;;25.73;42.72;100975.63;1815632;79;20114;-71
2024/04/11 09:12:04;;;;;;;;;;;;;;;25.64;42.96;100971.26;1810721;77;20115;-73
2024/04/11 09:14:31;;;;;;;;;;;;;;;25.53;43.68;100973.70;1799184;77;20439;-74
2024/04/11 09:17:04;;;;;;;;;;;;;;;25.41;43.82;100972.30;1815040;79;20145;-85
2024/04/11 09:19:39;;;;;;;;;;;;;;;25.30;44.18;100979.23;1820854;79;20093;-79
2024/04/11 09:21:59;;;;;;;;;;;;;;;25.20;44.31;100981.17;1821037;78;20368;-83
2024/04/11 09:24:26;;;;;;;;;;;;;;;25.09;44.31;100993.45;1818143;79;20129;-77
2024/04/11 09:27:04;;;;;;;;;;;;;;;24.97;44.28;100980.88;1807715;79;20159;-79
2024/04/11 09:29:41;;;;;;;;;;;;;;;24.85;44.68;100984.75;1800346;79;20110;-72
2024/04/11 09:32:07;;;;;;;;;;;;;;;24.75;44.63;100980.03;1803574;79;20121;-72
2024/04/11 09:34:35;;;;;;;;;;;;;;;24.70;45.61;100986.31;1804943;79;20410;-74
2024/04/11 09:37:04;;;;;;;;;;;;;;;24.62;45.98;100980.92;1825233;79;20094;-74
2024/04/11 09:39:48;;;;;;;;;;;;;;;24.52;46.48;100982.33;1822508;79;20137;-77
2024/04/11 09:42:19;;;;;;;;;;;;;;;24.47;47.26;100985.94;1786010;80;20110;-75
2024/04/11 09:44:52;;;;;;;;;;;;;;;24.40;47.82;100989.70;1805186;79;20230;-80
2024/04/11 09:47:20;;;;;;;;;;;;;;;24.35;48.25;100984.52;1800942;78;20131;-74
2024/04/11 09:49:53;;;;;;;;;;;;;;;24.32;48.69;100984.33;1818601;79;20181;-77
2024/04/11 09:52:22;;;;;;;;;;;;;;;24.28;48.99;100981.62;1813221;79;20121;-74
2024/04/11 09:54:51;;;;;;;;;;;;;;;24.23;48.74;100989.19;1806552;79;20137;-72
2024/04/11 09:57:21;;;;;;;;;;;;;;;24.16;49.32;100985.45;1805333;79;20456;-75
2024/04/11 09:59:48;;;;;;;;;;;;;;;24.07;49.63;100994.33;1781869;79;20115;-73
2024/04/11 10:02:16;;;;;;;;;;;;;;;23.97;49.40;100993.08;1804767;79;20416;-78
2024/04/11 10:04:43;;;;;;;;;;;;;;;23.92;50.04;100991.36;1817244;79;20366;-69
2024/04/11 10:07:19;;;;;;;;;;;;;;;23.87;49.64;100994.45;1809919;78;20365;-76
2024/04/11 10:09:49;;;;;;;;;;;;;;;23.81;49.96;100996.87;1805066;79;20172;-77
2024/04/11 10:12:19;;;;;;;;;;;;;;;23.75;50.57;100992.14;1813338;79;20160;-77
2024/04/11 10:14:44;;;;;;;;;;;;;;;23.70;50.67;100996.56;1821213;79;20436;-82
2024/04/11 10:17:13;;;;;;;;;;;;;;;23.68;50.99;100997.70;1788444;79;20095;-79
2024/04/11 10:19:43;;;;;;;;;;;;;;;23.65;50.80;100995.33;1798198;79;20187;-80
2024/04/11 10:22:15;;;;;;;;;;;;;;;23.59;50.88;100998.92;1819554;79;20137;-80
2024/04/11 10:24:38;;;;;;;;;;;;;;;23.55;50.96;100998.05;1822015;79;20370;-79
2024/04/11 10:27:11;;;;;;;;;;;;;;;23.51;51.13;101001.95;1820154;79;20141;-80
2024/04/11 10:29:46;;;;;;;;;;;;;;;23.48;51.13;100999.09;1825137;79;20130;-79
2024/04/11 10:32:22;;;;;;;;;;;;;;;23.44;51.58;100996.87;1801063;79;20198;-70
2024/04/11 10:34:57;;;;;;;;;;;;;;;23.40;51.69;101008.28;1805978;78;20364;-75
2024/04/11 10:37:24;;;;;;;;;;;;;;;23.38;52.46;101012.06;1816393;79;20105;-78
2024/04/11 10:39:57;;;;;;;;;;;;;;;23.36;52.58;101012.70;1808036;79;20182;-80
2024/04/11 10:42:39;;;;;;;;;;;;;;;23.33;52.96;101007.19;1799567;79;20126;-79
2024/04/11 10:45:12;;;;;;;;;;;;;;;23.30;53.20;101007.47;1813245;79;20416;-83
2024/04/11 10:47:39;;;;;;;;;;;;;;;23.28;53.22;101015.58;1819393;79;20090;-79
2024/04/11 10:50:15;;;;;;;;;;;;;;;23.23;53.21;101001.89;1820099;79;20169;-78
2024/04/11 10:52:47;;;;;;;;;;;;;;;23.20;53.58;101010.64;1813031;79;20163;-79
2024/04/11 10:55:28;;;;;;;;;;;;;;;23.18;54.50;101009.48;1803992;77;20104;-80
2024/04/11 10:58:13;;;;;;;;;;;;;;;23.17;53.80;101010.47;1797319;79;20184;-78
2024/04/11 11:01:11;;;;;;;;;;;;;;;23.14;54.21;101016.55;1829418;77;20141;-79
2024/04/11 11:06:25;;;;;;;;;;;;;;;23.08;54.04;101015.79;1827231;78;20133;-74
2024/04/11 11:08:57;;;;;;;;;;;;;;;23.01;53.56;101012.02;1800656;78;20379;-68
2024/04/11 11:11:25;;;;;;;;;;;;;;;22.91;54.08;101010.70;1808061;78;20130;-74
2024/04/11 11:13:54;;;;;;;;;;;;;;;22.86;54.24;101019.58;1824417;78;20115;-69
2024/04/11 11:16:23;;;;;;;;;;;;;;;22.85;54.75;101020.56;1800484;78;20129;-81
2024/04/11 11:18:49;;;;;;;;;;;;;;;22.80;54.75;101014.34;1823462;78;20112;-82
2024/04/11 11:21:17;;;;;;;;;;;;;;;22.77;55.28;101009.80;1790693;78;20117;-71
2024/04/11 11:23:46;;;;;;;;;;;;;;;22.74;55.14;101009.59;1810931;78;20131;-70
2024/04/11 11:26:13;;;;;;;;;;;;;;;22.72;55.23;101010.22;1800755;78;20107;-68
2024/04/11 11:28:39;;;;;;;;;;;;;;;22.70;55.60;101012.66;1829708;78;20103;-66
2024/04/11 11:31:14;;;;;;;;;;;;;;;22.69;54.90;101017.63;1831973;78;20123;-69
2024/04/11 11:33:37;;;;;;;;;;;;;;;22.67;54.63;101014.27;1818493;78;20086;-75
2024/04/11 11:36:04;;;;;;;;;;;;;;;22.63;54.91;101014.55;1804800;78;20133;-69
2024/04/11 11:38:33;;;;;;;;;;;;;;;22.60;54.42;101017.97;1800551;78;20380;-70
2024/04/11 11:41:00;;;;;;;;;;;;;;;22.57;54.68;101015.59;1810558;78;20467;-68
2024/04/11 11:43:27;;;;;;;;;;;;;;;22.55;54.87;101025.02;1812050;78;20147;-70
2024/04/11 11:48:45;;;;;;;;;;;;;;;22.48;54.22;101029.20;1816580;78;20160;-70
2024/04/11 11:51:09;;;;;;;;;;;;;;;22.41;54.47;101026.74;1815992;78;20184;-70
2024/04/11 11:53:45;;;;;;;;;;;;;;;22.37;54.86;101024.53;1802579;78;20400;-79
2024/04/11 11:56:08;;;;;;;;;;;;;;;22.37;54.33;101024.05;1820801;77;20410;-75
2024/04/11 11:58:35;;;;;;;;;;;;;;;22.36;54.07;101023.69;1809077;78;20096;-72
2024/04/11 12:01:02;;;;;;;;;;;;;;;22.34;54.11;101024.31;1807669;78;20122;-69
2024/04/11 12:03:32;;;;;;;;;;;;;;;22.34;53.91;101012.38;1827569;78;20115;-70
2024/04/11 12:05:58;;;;;;;;;;;;;;;22.34;54.40;101024.80;1812505;78;20450;-73
2024/04/11 12:08:25;;;;;;;;;;;;;;;22.34;54.04;101025.64;1807093;78;20092;-71
2024/04/11 12:13:34;;;;;;;;;;;;;;;22.31;53.86;101017.95;1801628;78;20123;-86
2024/04/11 12:16:07;;;;;;;;;;;;;;;22.29;54.17;101020.75;1800929;78;20114;-84
2024/04/11 12:18:34;;;;;;;;;;;;;;;22.28;54.20;101020.39;1810035;78;20162;-74
2024/04/11 12:21:02;;;;;;;;;;;;;;;22.27;53.48;101020.05;1819457;78;20091;-75
2024/04/11 12:23:34;;;;;;;;;;;;;;;22.22;53.32;101026.25;1814854;78;20098;-77
2024/04/11 12:25:59;;;;;;;;;;;;;;;22.20;53.44;101016.75;1820915;78;20283;-76
2024/04/11 12:28:26;;;;;;;;;;;;;;;22.17;53.08;101022.32;1818140;78;20128;-76
2024/04/11 12:31:02;;;;;;;;;;;;;;;22.13;53.42;101027.06;1808798;78;20184;-75
2024/04/11 12:33:31;;;;;;;;;;;;;;;22.10;53.42;101016.72;1814329;78;20671;-72
2024/04/11 12:36:09;;;;;;;;;;;;;;;22.08;53.24;101023.13;1799534;78;20105;-77
2024/04/11 12:38:30;;;;;;;;;;;;;;;22.04;52.83;101018.58;1809855;78;20137;-74
2024/04/11 12:40:58;;;;;;;;;;;;;;;22.02;52.66;101022.34;1823132;77;20153;-78
2024/04/11 12:43:28;;;;;;;;;;;;;;;22.01;52.60;101024.61;1801878;78;20131;-72
2024/04/11 12:45:53;;;;;;;;;;;;;;;21.99;51.82;101014.66;1829805;78;20386;-78
2024/04/11 12:48:23;;;;;;;;;;;;;;;21.97;51.18;101022.75;1808609;78;20121;-74
2024/04/11 12:50:54;;;;;;;;;;;;;;;21.91;51.18;101018.82;1785384;78;20102;-78
2024/04/11 12:53:22;;;;;;;;;;;;;;;21.89;50.59;101013.30;1810098;78;20158;-77
2024/04/11 12:55:57;;;;;;;;;;;;;;;21.87;50.65;101016.08;1828281;78;20116;-71
2024/04/11 12:58:19;;;;;;;;;;;;;;;21.84;50.55;101011.05;1803007;78;20125;-74
2024/04/11 13:00:57;;;;;;;;;;;;;;;21.83;50.44;101013.34;1823961;77;20138;-73
2024/04/11 13:03:16;;;;;;;;;;;;;;;21.82;49.72;101015.64;1814774;78;20123;-79
2024/04/11 13:05:52;;;;;;;;;;;;;;;21.80;49.57;101008.80;1824276;78;20106;-78
2024/04/11 13:08:19;;;;;;;;;;;;;;;21.80;49.92;101011.45;1825241;78;20113;-71
2024/04/11 13:10:49;;;;;;;;;;;;;;;21.82;49.92;101013.48;1808874;78;20122;-83
2024/04/11 13:13:16;;;;;;;;;;;;;;;21.82;49.17;101006.36;1804933;77;20267;-80
2024/04/11 13:15:49;;;;;;;;;;;;;;;21.82;49.09;101007.69;1809579;78;20364;-82
2024/04/11 13:18:16;;;;;;;;;;;;;;;21.80;48.23;101012.28;1814032;78;20085;-78
2024/04/11 13:20:44;;;;;;;;;;;;;;;21.77;48.41;101020.51;1792674;79;20132;-76
2024/04/11 13:23:20;;;;;;;;;;;;;;;21.74;49.01;101003.55;1815994;78;20120;-75
2024/04/11 13:25:45;;;;;;;;;;;;;;;21.73;48.78;101012.47;1821023;78;20401;-72
2024/04/11 13:28:12;;;;;;;;;;;;;;;21.72;48.59;101016.09;1814583;78;20139;-83
2024/04/11 13:30:43;;;;;;;;;;;;;;;21.69;48.48;101012.86;1815907;78;20109;-77
2024/04/11 13:33:14;;;;;;;;;;;;;;;21.68;49.12;101018.66;1815330;78;20133;-75
2024/04/11 13:35:52;;;;;;;;;;;;;;;21.66;49.25;101013.13;1801445;78;20098;-77
2024/04/11 13:38:24;;;;;;;;;;;;;;;21.64;49.02;101018.08;1809719;78;20091;-75
2024/04/11 13:40:57;;;;;;;;;;;;;;;21.59;49.28;101018.95;1807815;78;20106;-75
2024/04/11 13:43:20;;;;;;;;;;;;;;;21.58;49.37;101019.13;1823011;78;20139;-78
2024/04/11 13:45:55;;;;;;;;;;;;;;;21.57;49.37;101021.42;1809914;78;20147;-73
2024/04/11 13:48:16;;;;;;;;;;;;;;;21.55;49.28;101011.44;1806373;78;20137;-72
2024/04/11 13:50:45;;;;;;;;;;;;;;;21.54;49.15;101016.38;1808723;78;20433;-78
2024/04/11 13:53:14;;;;;;;;;;;;;;;21.52;49.18;101009.89;1822329;78;20139;-74
2024/04/11 13:55:44;;;;;;;;;;;;;;;21.51;49.11;101014.00;1820716;78;20398;-72
2024/04/11 13:58:21;;;;;;;;;;;;;;;21.50;49.22;101014.48;1815908;78;20429;-75
2024/04/11 14:00:53;;;;;;;;;;;;;;;21.52;48.52;101017.00;1811118;77;20102;-81
